createdAt,value
2022-09-23T00:01:17.925Z,81.10
2022-09-23T00:03:47.191Z,81.23
2022-09-23T00:06:17.647Z,82.12
2022-09-23T00:08:46.490Z,82.71
2022-09-23T00:11:18.513Z,82.57
2022-09-23T00:13:48.806Z,82.54
2022-09-23T00:16:20.601Z,82.74
2022-09-23T00:18:50.223Z,82.44
2022-09-23T00:21:20.862Z,81.71
2022-09-23T00:23:49.924Z,80.96
2022-09-23T00:26:22.064Z,81.00
2022-09-23T00:28:51.600Z,80.89
2022-09-23T00:31:21.931Z,81.16
2022-09-23T00:33:54.271Z,81.40
2022-09-23T00:36:22.856Z,82.92
2022-09-23T00:38:51.432Z,83.75
2022-09-23T00:41:21.761Z,83.52
2022-09-23T00:43:52.817Z,83.37
2022-09-23T00:46:23.640Z,83.22
2022-09-23T00:48:56.341Z,83.14
2022-09-23T00:51:28.789Z,83.48
2022-09-23T00:53:57.374Z,83.39
2022-09-23T00:56:27.386Z,83.43
2022-09-23T00:58:55.990Z,84.03
2022-09-23T01:01:25.855Z,83.69
2022-09-23T01:03:55.401Z,83.78
2022-09-23T01:06:24.114Z,83.89
2022-09-23T01:08:53.026Z,83.82
2022-09-23T01:11:38.404Z,83.42
2022-09-23T01:14:18.973Z,83.22
2022-09-23T01:16:54.741Z,83.00
2022-09-23T01:19:40.878Z,83.35
2022-09-23T01:22:13.290Z,82.75
2022-09-23T01:24:50.074Z,82.80
2022-09-23T01:27:28.614Z,82.83
2022-09-23T01:30:09.144Z,82.75
2022-09-23T01:32:49.245Z,83.04
2022-09-23T01:35:25.764Z,82.98
2022-09-23T01:38:00.392Z,83.22
2022-09-23T01:40:32.456Z,83.35
2022-09-23T01:43:06.058Z,82.73
2022-09-23T01:45:37.326Z,82.90
2022-09-23T01:48:13.825Z,83.11
2022-09-23T01:50:57.499Z,83.43
2022-09-23T01:53:32.994Z,82.50
2022-09-23T01:56:04.118Z,82.16
2022-09-23T01:58:38.100Z,81.50
2022-09-23T02:01:08.531Z,81.68
2022-09-23T02:03:42.728Z,81.50
2022-09-23T02:06:13.544Z,82.12
2022-09-23T02:08:45.608Z,82.75
2022-09-23T02:11:16.050Z,83.05
2022-09-23T02:13:48.662Z,83.30
2022-09-23T02:16:23.528Z,83.20
2022-09-23T02:18:55.962Z,83.70
2022-09-23T02:21:27.404Z,83.99
2022-09-23T02:24:00.456Z,83.34
2022-09-23T02:26:32.346Z,83.49
2022-09-23T02:29:08.812Z,83.93
2022-09-23T02:31:40.582Z,84.18
2022-09-23T02:34:23.117Z,84.07
2022-09-23T02:36:59.459Z,83.95
2022-09-23T02:39:32.490Z,83.70
2022-09-23T02:42:07.500Z,83.50
2022-09-23T02:44:36.038Z,84.04
2022-09-23T02:47:04.692Z,84.25
2022-09-23T02:49:36.490Z,83.65
2022-09-23T02:52:07.691Z,83.72
2022-09-23T02:54:36.343Z,83.74
2022-09-23T02:57:06.784Z,84.23
2022-09-23T02:59:36.284Z,84.81
2022-09-23T03:02:26.514Z,85.37
2022-09-23T03:05:05.608Z,85.06
2022-09-23T03:07:40.120Z,85.25
2022-09-23T03:10:14.412Z,85.03
2022-09-23T03:12:48.674Z,85.17
2022-09-23T03:15:23.883Z,85.24
2022-09-23T03:17:57.618Z,84.26
2022-09-23T03:20:32.207Z,84.03
2022-09-23T03:23:03.657Z,84.11
2022-09-23T03:25:35.259Z,84.15
2022-09-23T03:28:04.986Z,83.58
2022-09-23T03:30:35.516Z,84.46
2022-09-23T03:33:06.002Z,84.79
2022-09-23T03:35:58.947Z,84.17
2022-09-23T03:38:32.805Z,83.95
2022-09-23T03:41:02.858Z,84.10
2022-09-23T03:43:35.283Z,84.33
2022-09-23T03:46:08.852Z,84.73
2022-09-23T03:48:37.582Z,84.80
2022-09-23T03:51:21.379Z,84.02
2022-09-23T03:53:50.060Z,84.56
2022-09-23T03:56:18.623Z,84.81
2022-09-23T03:58:47.180Z,84.70
2022-09-23T04:01:16.074Z,84.58
2022-09-23T04:03:44.695Z,84.79
2022-09-23T04:06:14.726Z,84.36
2022-09-23T04:08:43.329Z,84.62
2022-09-23T04:11:12.233Z,84.81
2022-09-23T04:13:40.799Z,84.47
2022-09-23T04:16:09.437Z,84.97
2022-09-23T04:18:38.045Z,85.29
2022-09-23T04:21:06.968Z,85.46
2022-09-23T04:23:36.900Z,85.69
2022-09-23T04:26:06.202Z,85.62
2022-09-23T04:28:35.356Z,86.24
2022-09-23T04:31:05.455Z,86.13
2022-09-23T04:33:34.301Z,86.13
2022-09-23T04:36:03.100Z,86.27
2022-09-23T04:38:31.789Z,85.96
2022-09-23T04:41:01.754Z,85.11
2022-09-23T04:43:30.351Z,85.42
2022-09-23T04:46:00.525Z,85.56
2022-09-23T04:48:29.465Z,86.53
2022-09-23T04:51:03.228Z,85.91
2022-09-23T04:53:31.829Z,85.92
2022-09-23T04:56:06.658Z,86.38
2022-09-23T04:58:35.858Z,86.49
2022-09-23T05:01:10.310Z,86.65
2022-09-23T05:03:39.846Z,86.86
2022-09-23T05:06:08.822Z,86.84
2022-09-23T05:08:37.539Z,86.24
2022-09-23T05:11:08.910Z,86.06
2022-09-23T05:13:37.496Z,85.04
2022-09-23T05:16:09.093Z,85.73
2022-09-23T05:18:42.667Z,86.12
2022-09-23T05:21:12.036Z,86.24
2022-09-23T05:23:41.545Z,86.22
2022-09-23T05:26:13.582Z,86.59
2022-09-23T05:28:42.225Z,86.21
2022-09-23T05:31:19.398Z,85.94
2022-09-23T05:33:51.748Z,85.58
2022-09-23T05:36:21.166Z,85.42
2022-09-23T05:38:51.144Z,85.82
2022-09-23T05:41:22.859Z,86.34
2022-09-23T05:43:52.404Z,85.95
2022-09-23T05:46:23.526Z,85.87
2022-09-23T05:48:52.749Z,85.69
2022-09-23T05:51:23.991Z,85.42
2022-09-23T05:53:55.685Z,85.40
2022-09-23T05:56:27.133Z,85.96
2022-09-23T05:58:57.431Z,85.59
2022-09-23T06:01:27.844Z,86.75
2022-09-23T06:03:57.666Z,85.80
2022-09-23T06:06:28.894Z,85.57
2022-09-23T06:08:58.505Z,85.31
2022-09-23T06:11:30.604Z,85.29
2022-09-23T06:14:01.019Z,84.91
2022-09-23T06:16:30.869Z,85.23
2022-09-23T06:19:05.071Z,84.84
2022-09-23T06:21:34.748Z,84.47
2022-09-23T06:24:03.898Z,84.80
2022-09-23T06:26:34.937Z,84.44
2022-09-23T06:29:04.480Z,83.85
2022-09-23T06:31:33.277Z,83.69
2022-09-23T06:34:10.978Z,83.19
2022-09-23T06:36:44.577Z,82.79
2022-09-23T06:39:14.838Z,82.06
2022-09-23T06:41:45.270Z,81.60
2022-09-23T06:44:14.213Z,82.40
2022-09-23T06:46:43.256Z,82.18
2022-09-23T06:49:13.370Z,82.25
2022-09-23T06:51:42.279Z,81.69
2022-09-23T06:54:11.118Z,81.78
2022-09-23T06:56:40.223Z,82.21
2022-09-23T06:59:13.010Z,81.21
2022-09-23T07:01:41.836Z,80.95
2022-09-23T07:04:10.926Z,80.62
2022-09-23T07:06:39.730Z,81.05
2022-09-23T07:09:09.605Z,80.73
2022-09-23T07:11:39.670Z,81.50
2022-09-23T07:14:08.281Z,81.53
2022-09-23T07:16:38.260Z,81.37
2022-09-23T07:19:07.122Z,81.69
2022-09-23T07:21:36.782Z,79.96
2022-09-23T07:24:05.706Z,79.99
2022-09-23T07:26:34.708Z,79.48
2022-09-23T07:29:04.697Z,79.67
2022-09-23T07:31:39.228Z,79.48
2022-09-23T07:34:11.584Z,78.35
2022-09-23T07:36:41.876Z,77.75
2022-09-23T07:39:12.597Z,75.68
2022-09-23T07:41:44.475Z,77.76
2022-09-23T07:44:13.521Z,77.33
2022-09-23T07:46:42.155Z,77.29
2022-09-23T07:49:13.559Z,76.04
2022-09-23T07:51:45.876Z,73.88
2022-09-23T07:54:16.295Z,72.99
2022-09-23T07:56:45.261Z,73.41
2022-09-23T07:59:18.167Z,72.82
2022-09-23T08:01:48.749Z,72.18
2022-09-23T08:04:20.242Z,72.21
2022-09-23T08:06:51.005Z,73.12
2022-09-23T08:09:21.673Z,71.50
2022-09-23T08:11:50.853Z,70.88
2022-09-23T08:14:20.048Z,70.73
2022-09-23T08:16:49.043Z,72.66
2022-09-23T08:19:19.285Z,72.70
2022-09-23T08:21:48.144Z,71.63
2022-09-23T08:24:18.450Z,69.26
2022-09-23T08:26:47.818Z,69.25
2022-09-23T08:29:17.893Z,68.67
2022-09-23T08:31:46.514Z,69.25
2022-09-23T08:34:15.180Z,71.01
2022-09-23T08:36:45.351Z,68.72
2022-09-23T08:39:15.345Z,68.94
2022-09-23T08:41:47.628Z,68.42
2022-09-23T08:44:19.286Z,67.51
2022-09-23T08:46:53.109Z,66.97
2022-09-23T08:49:27.113Z,65.17
2022-09-23T08:51:57.301Z,64.00
2022-09-23T08:54:27.891Z,62.98
2022-09-23T08:56:58.526Z,62.98
2022-09-23T08:59:29.843Z,63.54
2022-09-23T09:02:00.527Z,62.45
2022-09-23T09:04:34.170Z,62.16
2022-09-23T09:07:35.115Z,62.95
2022-09-23T09:10:07.231Z,65.32
2022-09-23T09:12:41.833Z,62.54
2022-09-23T09:15:13.969Z,61.51
2022-09-23T09:17:50.126Z,64.96
2022-09-23T09:20:26.264Z,62.92
2022-09-23T09:22:59.741Z,63.07
2022-09-23T09:25:41.200Z,62.96
2022-09-23T09:28:17.557Z,61.35
2022-09-23T09:30:48.858Z,63.10
2022-09-23T09:33:19.029Z,61.70
2022-09-23T09:36:03.848Z,61.51
2022-09-23T09:38:33.844Z,61.73
2022-09-23T09:41:12.248Z,61.55
2022-09-23T09:43:44.129Z,62.66
2022-09-23T09:46:27.853Z,62.82
2022-09-23T09:48:59.715Z,61.55
2022-09-23T09:51:29.490Z,64.84
2022-09-23T09:54:17.498Z,60.13
2022-09-23T09:59:22.929Z,60.34
2022-09-23T10:02:15.521Z,61.87
2022-09-23T10:04:44.358Z,60.45
2022-09-23T10:07:14.680Z,58.05
2022-09-23T10:09:51.050Z,58.12
2022-09-23T10:12:21.385Z,57.26
2022-09-23T10:14:51.709Z,56.59
2022-09-23T10:17:22.518Z,57.83
2022-09-23T10:19:52.422Z,56.81
2022-09-23T10:22:24.620Z,57.62
2022-09-23T10:24:55.730Z,57.23
2022-09-23T10:27:31.297Z,58.76
2022-09-23T10:30:01.700Z,57.38
2022-09-23T10:32:33.451Z,56.51
2022-09-23T10:35:14.688Z,55.14
2022-09-23T10:37:45.725Z,53.86
2022-09-23T10:40:36.910Z,54.94
2022-09-23T10:43:45.271Z,54.98
2022-09-23T10:46:41.233Z,55.30
2022-09-23T10:49:35.573Z,55.24
2022-09-23T10:52:18.233Z,54.57
2022-09-23T10:54:54.157Z,51.92
2022-09-23T10:57:41.652Z,53.36
2022-09-23T11:00:16.773Z,53.50
2022-09-23T11:03:02.786Z,50.09
2022-09-23T11:05:36.714Z,50.88
2022-09-23T11:08:20.630Z,50.93
2022-09-23T11:11:03.888Z,50.95
2022-09-23T11:14:05.521Z,51.68
2022-09-23T11:16:44.318Z,49.89
2022-09-23T11:19:26.686Z,52.47
2022-09-23T11:22:05.891Z,53.38
2022-09-23T11:24:52.085Z,54.17
2022-09-23T11:27:33.011Z,52.76
2022-09-23T11:30:11.542Z,49.45
2022-09-23T11:33:14.177Z,48.98
2022-09-23T11:35:47.587Z,53.03
2022-09-23T11:38:21.213Z,51.95
2022-09-23T11:40:54.663Z,49.93
2022-09-23T11:43:25.876Z,50.86
2022-09-23T11:45:59.848Z,49.53
2022-09-23T11:48:32.721Z,51.81
2022-09-23T11:51:04.265Z,51.80
2022-09-23T11:53:40.505Z,49.79
2022-09-23T11:56:22.652Z,50.12
2022-09-23T11:59:01.106Z,50.40
2022-09-23T12:01:37.702Z,49.62
2022-09-23T12:04:18.830Z,49.53
2022-09-23T12:06:51.757Z,47.10
2022-09-23T12:09:40.909Z,45.70
2022-09-23T12:12:15.930Z,44.98
2022-09-23T12:14:52.252Z,46.31
2022-09-23T12:17:34.916Z,46.61
2022-09-23T12:20:16.032Z,49.76
2022-09-23T12:22:54.144Z,46.37
2022-09-23T12:25:43.277Z,47.47
2022-09-23T12:28:14.848Z,48.04
2022-09-23T12:30:44.061Z,48.51
2022-09-23T12:33:24.467Z,47.93
2022-09-23T12:35:54.406Z,47.92
2022-09-23T12:38:26.071Z,48.79
2022-09-23T12:40:55.792Z,47.64
2022-09-23T12:43:31.810Z,48.06
2022-09-23T12:46:19.822Z,47.33
2022-09-23T12:49:00.543Z,47.01
2022-09-23T12:51:30.156Z,48.39
2022-09-23T12:54:22.727Z,50.25
2022-09-23T12:57:02.657Z,50.62
2022-09-23T12:59:53.886Z,51.44
2022-09-23T13:02:28.691Z,52.75
2022-09-23T13:05:31.928Z,51.95
2022-09-23T13:08:04.199Z,49.61
2022-09-23T13:10:34.282Z,50.66
2022-09-23T13:13:03.526Z,50.46
2022-09-23T13:15:34.381Z,49.27
2022-09-23T13:18:25.580Z,48.23
2022-09-23T13:20:56.762Z,48.61
2022-09-23T13:23:26.962Z,47.66
2022-09-23T13:25:57.644Z,47.85
2022-09-23T13:28:36.757Z,48.80
2022-09-23T13:31:07.386Z,47.33
2022-09-23T13:33:42.377Z,49.97
2022-09-23T13:36:14.439Z,49.20
2022-09-23T13:38:43.437Z,48.56
2022-09-23T13:41:15.014Z,47.74
2022-09-23T13:43:45.285Z,49.54
2022-09-23T13:46:16.937Z,49.88
2022-09-23T13:48:47.349Z,50.37
2022-09-23T13:51:22.753Z,50.30
2022-09-23T13:53:53.503Z,47.07
2022-09-23T13:56:23.142Z,48.28
2022-09-23T13:58:52.221Z,48.50
2022-09-23T14:01:32.217Z,48.41
2022-09-23T14:04:02.117Z,49.07
2022-09-23T14:06:32.411Z,49.82
2022-09-23T14:09:02.500Z,48.87
2022-09-23T14:11:33.295Z,48.94
2022-09-23T14:14:07.509Z,49.33
2022-09-23T14:16:37.789Z,49.81
2022-09-23T14:19:06.599Z,49.63
2022-09-23T14:21:38.234Z,50.14
2022-09-23T14:24:17.384Z,49.16
2022-09-23T14:26:48.635Z,50.34
2022-09-23T14:29:18.886Z,50.40
2022-09-23T14:31:56.690Z,49.25
2022-09-23T14:34:46.467Z,49.92
2022-09-23T14:37:40.591Z,50.81
2022-09-23T14:40:13.752Z,48.09
2022-09-23T14:42:44.735Z,48.28
2022-09-23T14:45:16.841Z,49.02
2022-09-23T14:47:48.424Z,51.48
2022-09-23T14:50:39.520Z,51.26
2022-09-23T14:53:34.438Z,50.50
2022-09-23T14:56:12.607Z,50.55
2022-09-23T14:58:48.136Z,52.51
2022-09-23T15:01:35.309Z,50.49
2022-09-23T15:04:30.416Z,50.79
2022-09-23T15:07:02.017Z,51.52
2022-09-23T15:09:33.997Z,50.00
2022-09-23T15:12:05.561Z,52.30
2022-09-23T15:14:41.058Z,51.85
2022-09-23T15:17:18.948Z,51.22
2022-09-23T15:19:52.557Z,53.63
2022-09-23T15:22:21.217Z,53.93
2022-09-23T15:24:52.317Z,52.30
2022-09-23T15:27:38.599Z,52.56
2022-09-23T15:30:15.880Z,53.74
2022-09-23T15:32:44.965Z,55.40
2022-09-23T15:35:15.639Z,53.35
2022-09-23T15:37:44.478Z,53.21
2022-09-23T15:40:22.604Z,52.21
2022-09-23T15:42:55.347Z,53.00
2022-09-23T15:45:29.715Z,54.54
2022-09-23T15:48:00.913Z,54.09
2022-09-23T15:50:30.082Z,54.78
2022-09-23T15:52:59.507Z,55.74
2022-09-23T15:55:29.528Z,54.27
2022-09-23T15:57:58.311Z,55.67
2022-09-23T16:00:27.095Z,54.47
2022-09-23T16:02:55.776Z,55.46
2022-09-23T16:05:32.331Z,55.54
2022-09-23T16:08:04.938Z,54.92
2022-09-23T16:10:38.320Z,57.61
2022-09-23T16:13:08.959Z,58.15
2022-09-23T16:15:39.025Z,56.24
2022-09-23T16:18:08.328Z,57.08
2022-09-23T16:20:39.001Z,57.27
2022-09-23T16:23:09.090Z,58.43
2022-09-23T16:25:39.047Z,57.48
2022-09-23T16:28:07.724Z,57.40
2022-09-23T16:30:36.416Z,56.27
2022-09-23T16:33:05.139Z,57.80
2022-09-23T16:35:34.620Z,57.31
2022-09-23T16:38:03.275Z,57.14
2022-09-23T16:40:32.641Z,58.52
2022-09-23T16:43:05.282Z,61.24
2022-09-23T16:45:34.681Z,61.25
2022-09-23T16:48:03.567Z,60.62
2022-09-23T16:50:33.438Z,59.49
2022-09-23T16:53:02.115Z,59.79
2022-09-23T16:55:31.266Z,61.08
2022-09-23T16:57:59.984Z,61.39
2022-09-23T17:00:47.604Z,61.32
2022-09-23T17:03:33.802Z,61.08
2022-09-23T17:06:07.906Z,61.23
2022-09-23T17:08:36.891Z,62.26
2022-09-23T17:11:05.680Z,61.61
2022-09-23T17:13:35.112Z,62.76
2022-09-23T17:16:05.482Z,62.92
2022-09-23T17:18:34.453Z,63.63
2022-09-23T17:21:04.750Z,64.32
2022-09-23T17:23:35.134Z,64.60
2022-09-23T17:26:05.410Z,64.61
2022-09-23T17:28:34.542Z,64.91
2022-09-23T17:31:06.042Z,65.66
2022-09-23T17:33:37.541Z,65.96
2022-09-23T17:36:11.000Z,66.24
2022-09-23T17:38:40.185Z,66.67
2022-09-23T17:41:09.183Z,66.42
2022-09-23T17:43:38.824Z,67.39
2022-09-23T17:46:10.771Z,68.16
2022-09-23T17:48:41.752Z,68.01
2022-09-23T17:51:12.669Z,67.97
2022-09-23T17:53:42.782Z,67.93
2022-09-23T17:56:14.441Z,68.09
2022-09-23T17:58:43.643Z,68.18
2022-09-23T18:01:15.060Z,68.50
2022-09-23T18:03:44.261Z,68.05
2022-09-23T18:06:15.402Z,68.51
2022-09-23T18:08:45.804Z,68.37
2022-09-23T18:11:16.488Z,68.18
2022-09-23T18:13:48.858Z,68.41
2022-09-23T18:16:19.226Z,68.71
2022-09-23T18:18:51.620Z,69.91
2022-09-23T18:21:20.712Z,70.68
2022-09-23T18:23:50.348Z,71.10
2022-09-23T18:26:21.644Z,71.45
2022-09-23T18:28:52.953Z,72.13
2022-09-23T18:31:23.992Z,72.18
2022-09-23T18:33:53.378Z,72.06
2022-09-23T18:36:22.746Z,72.87
2022-09-23T18:38:51.951Z,73.39
2022-09-23T18:41:20.782Z,73.44
2022-09-23T18:43:49.506Z,74.66
2022-09-23T18:46:19.209Z,74.32
2022-09-23T18:49:07.363Z,75.13
2022-09-23T18:51:38.366Z,74.73
2022-09-23T18:54:08.330Z,75.20
2022-09-23T18:56:41.605Z,75.55
2022-09-23T18:59:14.342Z,75.07
2022-09-23T19:01:43.490Z,75.53
2022-09-23T19:04:14.662Z,75.22
2022-09-23T19:06:43.278Z,75.29
2022-09-23T19:09:12.207Z,76.58
2022-09-23T19:11:40.825Z,76.83
2022-09-23T19:14:11.493Z,76.34
2022-09-23T19:16:41.499Z,76.84
2022-09-23T19:19:10.914Z,76.89
2022-09-23T19:21:40.883Z,77.13
2022-09-23T19:24:09.669Z,76.57
2022-09-23T19:26:40.389Z,76.32
2022-09-23T19:29:12.405Z,76.70
2022-09-23T19:31:41.787Z,76.35
2022-09-23T19:34:13.772Z,75.79
2022-09-23T19:36:46.310Z,77.12
2022-09-23T19:39:17.539Z,77.32
2022-09-23T19:41:46.935Z,77.09
2022-09-23T19:44:16.557Z,77.30
2022-09-23T19:46:45.803Z,79.46
2022-09-23T19:49:15.104Z,78.74
2022-09-23T19:51:46.459Z,77.19
2022-09-23T19:54:20.669Z,77.10
2022-09-23T19:56:50.045Z,77.24
2022-09-23T19:59:19.590Z,77.22
2022-09-23T20:01:48.623Z,77.35
2022-09-23T20:04:17.902Z,76.99
2022-09-23T20:06:49.495Z,77.75
2022-09-23T20:09:18.192Z,77.89
2022-09-23T20:11:46.822Z,77.95
2022-09-23T20:14:15.459Z,78.29
2022-09-23T20:16:44.272Z,78.55
2022-09-23T20:19:12.953Z,78.49
2022-09-23T20:21:41.537Z,79.29
2022-09-23T20:24:13.124Z,79.69
2022-09-23T20:26:59.144Z,80.08
2022-09-23T20:29:27.801Z,79.98
2022-09-23T20:31:58.563Z,79.68
2022-09-23T20:34:29.632Z,79.91
2022-09-23T20:36:59.228Z,80.74
2022-09-23T20:39:29.229Z,79.81
2022-09-23T20:41:58.329Z,80.59
2022-09-23T20:44:27.000Z,80.92
2022-09-23T20:46:55.838Z,80.92
2022-09-23T20:49:24.565Z,81.61
2022-09-23T20:51:53.511Z,81.36
2022-09-23T20:54:23.042Z,81.43
2022-09-23T20:56:53.376Z,81.59
2022-09-23T20:59:21.957Z,81.94
2022-09-23T21:01:55.416Z,82.00
2022-09-23T21:04:24.136Z,82.38
2022-09-23T21:06:52.936Z,82.45
2022-09-23T21:09:22.397Z,82.46
2022-09-23T21:11:50.974Z,82.98
2022-09-23T21:14:22.515Z,82.84
2022-09-23T21:16:51.509Z,83.41
2022-09-23T21:19:20.273Z,84.85
2022-09-23T21:21:48.906Z,84.35
2022-09-23T21:24:45.616Z,84.40
2022-09-23T21:27:06.450Z,84.72
2022-09-23T21:29:36.359Z,84.83
2022-09-23T21:32:05.552Z,84.72
2022-09-23T21:34:34.144Z,84.60
2022-09-23T21:37:03.918Z,84.68
2022-09-23T21:39:32.918Z,84.39
2022-09-23T21:42:01.567Z,84.42
2022-09-23T21:44:30.349Z,85.27
2022-09-23T21:47:00.387Z,84.99
2022-09-23T21:49:29.059Z,84.44
2022-09-23T21:51:58.924Z,84.47
2022-09-23T21:54:27.766Z,84.31
2022-09-23T21:56:56.389Z,83.78
2022-09-23T21:59:25.042Z,83.29
2022-09-23T22:01:54.486Z,83.52
2022-09-23T22:04:24.676Z,84.12
2022-09-23T22:06:53.886Z,84.29
2022-09-23T22:09:22.586Z,84.95
2022-09-23T22:12:07.835Z,85.65
2022-09-23T22:14:36.854Z,85.62
2022-09-23T22:17:06.678Z,86.31
2022-09-23T22:19:42.767Z,87.40
2022-09-23T22:22:17.601Z,87.53
2022-09-23T22:24:47.691Z,87.61
2022-09-23T22:27:18.400Z,87.00
2022-09-23T22:30:04.500Z,86.42
2022-09-23T22:32:42.097Z,86.35
2022-09-23T22:35:13.405Z,86.10
2022-09-23T22:37:41.979Z,85.17
2022-09-23T22:40:14.257Z,84.29
2022-09-23T22:42:43.366Z,84.35
2022-09-23T22:45:12.682Z,84.71
2022-09-23T22:47:44.068Z,84.61
2022-09-23T22:50:14.989Z,83.46
2022-09-23T22:52:43.839Z,83.89
2022-09-23T22:55:12.817Z,83.96
2022-09-23T22:57:41.437Z,84.39
2022-09-23T23:00:12.082Z,84.47
2022-09-23T23:02:42.222Z,84.73
2022-09-23T23:05:11.081Z,84.67
2022-09-23T23:07:41.108Z,85.27
2022-09-23T23:10:10.532Z,85.85
2022-09-23T23:12:40.301Z,85.61
2022-09-23T23:15:12.283Z,86.43
2022-09-23T23:17:43.552Z,86.31
2022-09-23T23:20:12.374Z,86.56
2022-09-23T23:22:42.275Z,87.98
2022-09-23T23:25:11.053Z,88.02
2022-09-23T23:27:39.625Z,88.41
2022-09-23T23:30:09.631Z,87.86
2022-09-23T23:32:38.383Z,87.86
2022-09-23T23:35:08.462Z,88.43
2022-09-23T23:37:37.013Z,88.55
2022-09-23T23:40:08.298Z,88.73
2022-09-23T23:42:36.901Z,88.60
2022-09-23T23:45:06.456Z,88.75
2022-09-23T23:47:35.856Z,88.24
2022-09-23T23:50:05.441Z,88.17
2022-09-23T23:52:34.015Z,88.44
2022-09-23T23:55:02.869Z,89.17
2022-09-23T23:57:32.839Z,88.41
